Time,TemperatureF,DewpointF,PressureIn,WindDirection,WindDirectionDegrees,WindSpeedMPH,WindSpeedGustMPH,Humidity,HourlyPrecipIn,Conditions,Clouds,dailyrainin,SoftwareType,DateUTC
2013-02-07 00:00:00,35.1,30.5,30.20,ENE,65,4.5,7.5,83,0.00,,,0.00,VWS V14.01,2013-02-07 05:00:00,
2013-02-07 00:01:00,35.1,30.5,30.21,East,84,6.0,10.5,83,0.00,,,0.00,VWS V14.01,2013-02-07 05:01:00,
2013-02-07 00:06:00,35.0,30.7,30.20,East,91,4.5,6.0,84,0.00,,,0.00,VWS V14.01,2013-02-07 05:06:00,
2013-02-07 00:11:00,35.0,30.7,30.20,East,101,3.0,6.0,84,0.00,,,0.00,VWS V14.01,2013-02-07 05:11:00,
2013-02-07 00:16:00,34.9,30.6,30.21,East,97,4.5,7.5,84,0.00,,,0.00,VWS V14.01,2013-02-07 05:16:00,
2013-02-07 00:21:00,35.0,30.7,30.21,ENE,71,7.5,7.5,84,0.00,,,0.00,VWS V14.01,2013-02-07 05:21:00,
2013-02-07 00:26:00,35.0,30.7,30.20,East,79,3.0,9.0,84,0.00,,,0.00,VWS V14.01,2013-02-07 05:26:00,
2013-02-07 00:31:00,35.0,30.7,30.20,ENE,61,6.0,6.0,84,0.00,,,0.00,VWS V14.01,2013-02-07 05:31:00,
2013-02-07 00:36:00,35.1,30.8,30.20,ESE,122,7.5,12.0,84,0.00,,,0.00,VWS V14.01,2013-02-07 05:36:00,
2013-02-07 00:41:00,35.1,30.8,30.20,East,93,7.5,7.5,84,0.00,,,0.00,VWS V14.01,2013-02-07 05:41:00,
2013-02-07 00:46:00,35.1,30.8,30.20,East,93,4.5,4.5,84,0.00,,,0.00,VWS V14.01,2013-02-07 05:46:00,
2013-02-07 00:51:00,35.0,30.7,30.20,East,82,6.0,7.5,84,0.00,,,0.00,VWS V14.01,2013-02-07 05:51:00,
2013-02-07 00:56:00,35.0,30.7,30.20,ENE,58,3.0,3.0,84,0.00,,,0.00,VWS V14.01,2013-02-07 05:56:00,
2013-02-07 01:01:00,34.9,30.6,30.19,ESE,106,6.0,7.5,84,0.00,,,0.00,VWS V14.01,2013-02-07 06:01:00,
2013-02-07 01:06:00,35.0,30.7,30.19,ENE,72,6.0,7.5,84,0.00,,,0.00,VWS V14.01,2013-02-07 06:06:00,
2013-02-07 01:11:00,35.1,30.8,30.19,East,88,6.0,6.0,84,0.00,,,0.00,VWS V14.01,2013-02-07 06:11:00,
2013-02-07 01:16:00,35.2,30.9,30.19,East,84,4.5,4.5,84,0.00,,,0.00,VWS V14.01,2013-02-07 06:16:00,
2013-02-07 01:21:00,35.2,30.9,30.19,East,88,4.5,9.0,84,0.00,,,0.00,VWS V14.01,2013-02-07 06:21:00,
2013-02-07 01:26:00,35.2,30.9,30.18,East,86,7.5,7.5,84,0.00,,,0.00,VWS V14.01,2013-02-07 06:26:00,
2013-02-07 01:31:00,35.1,30.8,30.18,East,82,4.5,6.0,84,0.00,,,0.00,VWS V14.01,2013-02-07 06:31:00,
2013-02-07 01:36:00,35.1,30.8,30.18,East,86,4.5,9.0,84,0.00,,,0.00,VWS V14.01,2013-02-07 06:36:00,
2013-02-07 01:41:00,35.1,31.1,30.18,ENE,68,4.5,7.5,85,0.00,,,0.00,VWS V14.01,2013-02-07 06:41:00,
2013-02-07 01:46:00,35.2,31.2,30.18,East,92,4.5,6.0,85,0.00,,,0.00,VWS V14.01,2013-02-07 06:46:00,
2013-02-07 01:51:00,35.1,31.1,30.18,East,86,6.0,7.5,85,0.00,,,0.00,VWS V14.01,2013-02-07 06:51:00,
2013-02-07 01:56:00,35.1,31.1,30.18,East,89,3.0,6.0,85,0.00,,,0.00,VWS V14.01,2013-02-07 06:56:00,
2013-02-07 02:01:00,35.2,31.2,30.18,ESE,122,4.5,7.5,85,0.00,,,0.00,VWS V14.01,2013-02-07 07:01:00,
2013-02-07 02:06:00,35.2,31.2,30.17,ENE,75,6.0,6.0,85,0.00,,,0.00,VWS V14.01,2013-02-07 07:06:00,
2013-02-07 02:11:00,35.3,31.3,30.17,East,92,3.0,6.0,85,0.00,,,0.00,VWS V14.01,2013-02-07 07:11:00,
2013-02-07 02:16:00,35.4,31.1,30.17,ENE,75,7.5,7.5,84,0.00,,,0.00,VWS V14.01,2013-02-07 07:16:00,
2013-02-07 02:20:00,35.5,31.1,30.17,ESE,104,4.5,7.5,84,0.00,,,0.00,VWS V14.01,2013-02-07 07:20:00,
2013-02-07 02:25:00,35.7,31.4,30.17,East,81,10.5,10.5,84,0.00,,,0.00,VWS V14.01,2013-02-07 07:25:00,
2013-02-07 02:30:00,35.7,31.4,30.17,East,93,3.0,6.0,84,0.00,,,0.00,VWS V14.01,2013-02-07 07:30:00,
2013-02-07 02:35:00,35.6,31.2,30.17,ENE,77,6.0,7.5,84,0.00,,,0.00,VWS V14.01,2013-02-07 07:35:00,
2013-02-07 02:40:00,35.6,31.2,30.17,East,83,4.5,4.5,84,0.00,,,0.00,VWS V14.01,2013-02-07 07:40:00,
2013-02-07 02:45:00,35.5,31.1,30.17,ENE,74,3.0,6.0,84,0.00,,,0.00,VWS V14.01,2013-02-07 07:45:00,
2013-02-07 02:50:00,35.6,31.2,30.16,East,101,4.5,4.5,84,0.00,,,0.00,VWS V14.01,2013-02-07 07:50:00,
2013-02-07 02:55:00,35.5,31.1,30.16,East,91,6.0,6.0,84,0.00,,,0.00,VWS V14.01,2013-02-07 07:55:00,
2013-02-07 03:00:00,35.6,31.2,30.16,ENE,71,1.5,4.5,84,0.00,,,0.00,VWS V14.01,2013-02-07 08:00:00,
2013-02-07 03:05:00,35.6,31.2,30.16,East,92,4.5,6.0,84,0.00,,,0.00,VWS V14.01,2013-02-07 08:05:00,
2013-02-07 03:10:00,35.6,31.2,30.16,East,101,6.0,6.0,84,0.00,,,0.00,VWS V14.01,2013-02-07 08:10:00,
2013-02-07 03:15:00,35.6,31.2,30.16,East,91,4.5,4.5,84,0.00,,,0.00,VWS V14.01,2013-02-07 08:15:00,
2013-02-07 03:20:00,35.6,31.2,30.16,ESE,117,3.0,4.5,84,0.00,,,0.00,VWS V14.01,2013-02-07 08:20:00,
2013-02-07 03:25:00,35.6,31.2,30.16,East,95,4.5,4.5,84,0.00,,,0.00,VWS V14.01,2013-02-07 08:25:00,
2013-02-07 03:30:00,35.6,31.2,30.16,ENE,78,3.0,3.0,84,0.00,,,0.00,VWS V14.01,2013-02-07 08:30:00,
2013-02-07 03:35:00,35.6,31.2,30.16,ENE,75,3.0,4.5,84,0.00,,,0.00,VWS V14.01,2013-02-07 08:35:00,
2013-02-07 03:40:00,35.6,31.2,30.17,ENE,78,3.0,3.0,84,0.00,,,0.00,VWS V14.01,2013-02-07 08:40:00,
2013-02-07 03:45:00,35.6,31.2,30.17,East,91,1.5,4.5,84,0.00,,,0.00,VWS V14.01,2013-02-07 08:45:00,
2013-02-07 03:50:00,35.6,31.2,30.16,ENE,60,3.0,3.0,84,0.00,,,0.00,VWS V14.01,2013-02-07 08:50:00,
2013-02-07 03:55:00,35.6,31.2,30.17,East,91,1.5,1.5,84,0.00,,,0.00,VWS V14.01,2013-02-07 08:55:00,
2013-02-07 04:00:00,35.6,31.2,30.17,ENE,70,1.5,1.5,84,0.00,,,0.00,VWS V14.01,2013-02-07 09:00:00,
2013-02-07 04:05:00,35.6,31.2,30.17,East,93,1.5,1.5,84,0.00,,,0.00,VWS V14.01,2013-02-07 09:05:00,
2013-02-07 04:10:00,35.6,31.2,30.17,East,88,1.5,4.5,84,0.00,,,0.00,VWS V14.01,2013-02-07 09:10:00,
2013-02-07 04:15:00,35.6,31.2,30.17,SE,137,3.0,4.5,84,0.00,,,0.00,VWS V14.01,2013-02-07 09:15:00,
2013-02-07 04:20:00,35.6,31.6,30.17,ESE,117,1.5,1.5,85,0.00,,,0.00,VWS V14.01,2013-02-07 09:20:00,
2013-02-07 04:25:00,35.6,31.6,30.16,East,91,4.5,4.5,85,0.00,,,0.00,VWS V14.01,2013-02-07 09:25:00,
2013-02-07 04:30:00,35.7,31.7,30.16,ENE,67,4.5,6.0,85,0.00,,,0.00,VWS V14.01,2013-02-07 09:30:00,
2013-02-07 04:35:00,35.7,31.7,30.16,North,10,1.5,3.0,85,0.00,,,0.00,VWS V14.01,2013-02-07 09:35:00,
2013-02-07 04:40:00,35.6,31.6,30.17,North,359,1.5,1.5,85,0.00,,,0.00,VWS V14.01,2013-02-07 09:40:00,
2013-02-07 04:45:00,35.5,31.5,30.17,NNE,21,1.5,1.5,85,0.00,,,0.00,VWS V14.01,2013-02-07 09:45:00,
2013-02-07 04:50:00,35.5,31.5,30.17,NNE,29,1.5,3.0,85,0.00,,,0.00,VWS V14.01,2013-02-07 09:50:00,
2013-02-07 04:55:00,35.5,31.5,30.17,ENE,72,1.5,3.0,85,0.00,,,0.00,VWS V14.01,2013-02-07 09:55:00,
2013-02-07 05:00:00,35.5,31.5,30.16,East,86,3.0,4.5,85,0.00,,,0.00,VWS V14.01,2013-02-07 10:00:00,
2013-02-07 05:05:00,35.5,31.5,30.16,East,90,3.0,4.5,85,0.00,,,0.00,VWS V14.01,2013-02-07 10:05:00,
2013-02-07 05:10:00,35.5,31.8,30.15,East,84,4.5,4.5,86,0.00,,,0.00,VWS V14.01,2013-02-07 10:10:00,
2013-02-07 05:15:00,35.5,31.8,30.15,ENE,70,4.5,6.0,86,0.00,,,0.00,VWS V14.01,2013-02-07 10:15:00,
2013-02-07 05:20:00,35.5,31.5,30.16,ESE,113,6.0,6.0,85,0.00,,,0.00,VWS V14.01,2013-02-07 10:20:00,
2013-02-07 05:25:00,35.6,31.6,30.16,ESE,111,1.5,1.5,85,0.00,,,0.00,VWS V14.01,2013-02-07 10:25:00,
2013-02-07 05:30:00,35.5,31.5,30.16,ESE,110,1.5,1.5,85,0.00,,,0.00,VWS V14.01,2013-02-07 10:30:00,
2013-02-07 05:35:00,35.5,31.5,30.16,East,97,3.0,3.0,85,0.00,,,0.00,VWS V14.01,2013-02-07 10:35:00,
2013-02-07 05:40:00,35.6,31.6,30.15,East,91,3.0,3.0,85,0.00,,,0.00,VWS V14.01,2013-02-07 10:40:00,
2013-02-07 05:45:00,35.5,31.8,30.15,ENE,77,1.5,3.0,86,0.00,,,0.00,VWS V14.01,2013-02-07 10:45:00,
2013-02-07 05:50:00,35.5,31.8,30.15,ESE,104,3.0,3.0,86,0.00,,,0.00,VWS V14.01,2013-02-07 10:50:00,
2013-02-07 05:55:00,35.5,31.8,30.15,East,101,1.5,3.0,86,0.00,,,0.00,VWS V14.01,2013-02-07 10:55:00,
2013-02-07 06:00:00,35.5,31.8,30.15,ENE,70,3.0,3.0,86,0.00,,,0.00,VWS V14.01,2013-02-07 11:00:00,
2013-02-07 06:05:00,35.4,31.7,30.15,East,92,1.5,1.5,86,0.00,,,0.00,VWS V14.01,2013-02-07 11:05:00,
2013-02-07 06:10:00,35.4,31.7,30.15,East,79,3.0,3.0,86,0.00,,,0.00,VWS V14.01,2013-02-07 11:10:00,
2013-02-07 06:15:00,35.4,31.7,30.15,ENE,68,1.5,1.5,86,0.00,,,0.00,VWS V14.01,2013-02-07 11:15:00,
2013-02-07 06:20:00,35.4,31.7,30.15,SE,124,3.0,3.0,86,0.00,,,0.00,VWS V14.01,2013-02-07 11:20:00,
2013-02-07 06:25:00,35.3,31.6,30.14,East,86,3.0,3.0,86,0.00,,,0.00,VWS V14.01,2013-02-07 11:25:00,
2013-02-07 06:30:00,35.4,31.7,30.14,ENE,77,3.0,4.5,86,0.00,,,0.00,VWS V14.01,2013-02-07 11:30:00,
2013-02-07 06:35:00,35.5,31.8,30.14,East,79,4.5,4.5,86,0.00,,,0.00,VWS V14.01,2013-02-07 11:35:00,
2013-02-07 06:40:00,35.5,31.8,30.14,East,92,3.0,4.5,86,0.00,,,0.00,VWS V14.01,2013-02-07 11:40:00,
2013-02-07 06:45:00,35.6,31.9,30.14,ENE,78,4.5,4.5,86,0.00,,,0.00,VWS V14.01,2013-02-07 11:45:00,
2013-02-07 06:50:00,35.6,31.9,30.14,East,84,3.0,3.0,86,0.00,,,0.00,VWS V14.01,2013-02-07 11:50:00,
2013-02-07 06:55:00,35.5,31.8,30.13,ENE,78,4.5,4.5,86,0.00,,,0.00,VWS V14.01,2013-02-07 11:55:00,
2013-02-07 07:00:00,35.4,31.7,30.13,ENE,66,6.0,6.0,86,0.00,,,0.00,VWS V14.01,2013-02-07 12:00:00,
2013-02-07 07:05:00,35.4,31.7,30.13,East,89,6.0,6.0,86,0.00,,,0.00,VWS V14.01,2013-02-07 12:05:00,
2013-02-07 07:10:00,35.7,32.0,30.12,East,95,4.5,6.0,86,0.00,,,0.00,VWS V14.01,2013-02-07 12:10:00,
2013-02-07 07:15:00,35.9,31.9,30.13,ENE,66,1.5,1.5,85,0.00,,,0.00,VWS V14.01,2013-02-07 12:15:00,
2013-02-07 07:20:00,36.0,32.0,30.12,ESE,111,3.0,4.5,85,0.00,,,0.00,VWS V14.01,2013-02-07 12:20:00,
2013-02-07 07:25:00,36.2,31.8,30.12,ENE,70,3.0,4.5,84,0.00,,,0.00,VWS V14.01,2013-02-07 12:25:00,
2013-02-07 07:30:00,36.4,32.0,30.12,NNE,31,1.5,3.0,84,0.00,,,0.00,VWS V14.01,2013-02-07 12:30:00,
2013-02-07 07:35:00,36.4,32.0,30.12,ENE,74,3.0,4.5,84,0.00,,,0.00,VWS V14.01,2013-02-07 12:35:00,
2013-02-07 07:40:00,36.5,32.1,30.12,East,79,1.5,6.0,84,0.00,,,0.00,VWS V14.01,2013-02-07 12:40:00,
2013-02-07 07:45:00,36.6,32.2,30.13,East,79,4.5,4.5,84,0.00,,,0.00,VWS V14.01,2013-02-07 12:45:00,
2013-02-07 07:50:00,36.7,32.3,30.13,ENE,74,1.5,1.5,84,0.00,,,0.00,VWS V14.01,2013-02-07 12:50:00,
2013-02-07 07:55:00,36.7,32.3,30.13,ENE,72,1.5,1.5,84,0.00,,,0.00,VWS V14.01,2013-02-07 12:55:00,
2013-02-07 08:00:00,36.7,32.3,30.12,East,84,3.0,3.0,84,0.00,,,0.00,VWS V14.01,2013-02-07 13:00:00,
2013-02-07 08:05:00,36.7,32.3,30.13,East,82,3.0,3.0,84,0.00,,,0.00,VWS V14.01,2013-02-07 13:05:00,
2013-02-07 08:10:00,36.6,32.5,30.12,East,89,3.0,3.0,85,0.00,,,0.00,VWS V14.01,2013-02-07 13:10:00,
2013-02-07 08:15:00,36.6,32.2,30.12,East,93,3.0,3.0,84,0.00,,,0.00,VWS V14.01,2013-02-07 13:15:00,
2013-02-07 08:20:00,36.7,32.3,30.12,ESE,108,6.0,6.0,84,0.00,,,0.00,VWS V14.01,2013-02-07 13:20:00,
2013-02-07 08:25:00,36.8,32.4,30.12,East,89,1.5,1.5,84,0.00,,,0.00,VWS V14.01,2013-02-07 13:25:00,
2013-02-07 08:30:00,36.9,32.5,30.12,East,81,1.5,1.5,84,0.00,,,0.00,VWS V14.01,2013-02-07 13:30:00,
2013-02-07 08:35:00,37.0,32.6,30.12,ESE,111,3.0,3.0,84,0.00,,,0.00,VWS V14.01,2013-02-07 13:35:00,
2013-02-07 08:40:00,37.2,32.8,30.12,East,85,3.0,3.0,84,0.00,,,0.00,VWS V14.01,2013-02-07 13:40:00,
2013-02-07 08:45:00,37.4,33.0,30.12,East,87,3.0,3.0,84,0.00,,,0.00,VWS V14.01,2013-02-07 13:45:00,
2013-02-07 08:50:00,37.6,33.2,30.12,East,90,3.0,4.5,84,0.00,,,0.00,VWS V14.01,2013-02-07 13:50:00,
2013-02-07 08:55:00,38.0,33.3,30.12,East,88,1.5,3.0,83,0.00,,,0.00,VWS V14.01,2013-02-07 13:55:00,
2013-02-07 09:00:00,38.4,33.7,30.12,ENE,65,1.5,3.0,83,0.00,,,0.00,VWS V14.01,2013-02-07 14:00:00,
2013-02-07 09:05:00,38.9,33.8,30.12,NE,48,3.0,4.5,82,0.00,,,0.00,VWS V14.01,2013-02-07 14:05:00,
2013-02-07 09:10:00,39.2,33.8,30.12,ENE,61,1.5,3.0,81,0.00,,,0.00,VWS V14.01,2013-02-07 14:10:00,
2013-02-07 09:15:00,39.4,34.0,30.12,ENE,63,1.5,1.5,81,0.00,,,0.00,VWS V14.01,2013-02-07 14:15:00,
2013-02-07 09:20:00,39.7,34.0,30.12,ENE,58,1.5,3.0,80,0.00,,,0.00,VWS V14.01,2013-02-07 14:20:00,
2013-02-07 09:25:00,40.1,34.4,30.12,NNE,29,4.5,6.0,80,0.00,,,0.00,VWS V14.01,2013-02-07 14:25:00,
2013-02-07 09:30:00,40.5,34.8,30.12,East,101,1.5,4.5,80,0.00,,,0.00,VWS V14.01,2013-02-07 14:30:00,
2013-02-07 09:35:00,41.0,34.9,30.11,East,81,7.5,9.0,79,0.00,,,0.00,VWS V14.01,2013-02-07 14:35:00,
2013-02-07 09:40:00,41.3,34.9,30.11,ESE,108,4.5,7.5,78,0.00,,,0.00,VWS V14.01,2013-02-07 14:40:00,
2013-02-07 09:45:00,41.7,34.9,30.11,East,91,3.0,6.0,77,0.00,,,0.00,VWS V14.01,2013-02-07 14:45:00,
2013-02-07 09:50:00,42.3,35.2,30.11,ESE,103,4.5,6.0,76,0.00,,,0.00,VWS V14.01,2013-02-07 14:50:00,
2013-02-07 09:55:00,42.9,35.7,30.10,East,86,3.0,7.5,76,0.00,,,0.00,VWS V14.01,2013-02-07 14:55:00,
2013-02-07 10:00:00,43.4,35.9,30.10,SE,136,3.0,3.0,75,0.00,,,0.00,VWS V14.01,2013-02-07 15:00:00,
2013-02-07 10:05:00,44.1,36.2,30.10,South,189,3.0,4.5,74,0.00,,,0.00,VWS V14.01,2013-02-07 15:05:00,
2013-02-07 10:10:00,44.8,35.8,30.09,ENE,75,4.5,4.5,70,0.00,,,0.00,VWS V14.01,2013-02-07 15:10:00,
2013-02-07 10:15:00,45.4,36.0,30.09,SE,133,4.5,4.5,69,0.00,,,0.00,VWS V14.01,2013-02-07 15:15:00,
2013-02-07 10:20:00,45.8,36.3,30.09,ENE,72,6.0,7.5,69,0.00,,,0.00,VWS V14.01,2013-02-07 15:20:00,
2013-02-07 10:25:00,46.2,35.9,30.09,East,98,4.5,4.5,67,0.00,,,0.00,VWS V14.01,2013-02-07 15:25:00,
2013-02-07 10:30:00,47.0,35.9,30.09,SSW,209,4.5,4.5,65,0.00,,,0.00,VWS V14.01,2013-02-07 15:30:00,
2013-02-07 10:35:00,47.7,36.6,30.09,SE,138,4.5,6.0,65,0.00,,,0.00,VWS V14.01,2013-02-07 15:35:00,
2013-02-07 10:40:00,48.1,37.0,30.09,SSE,150,3.0,4.5,65,0.00,,,0.00,VWS V14.01,2013-02-07 15:40:00,
2013-02-07 10:45:00,48.6,37.0,30.09,ENE,57,4.5,4.5,64,0.00,,,0.00,VWS V14.01,2013-02-07 15:45:00,
2013-02-07 10:50:00,49.4,37.3,30.09,ENE,76,6.0,6.0,63,0.00,,,0.00,VWS V14.01,2013-02-07 15:50:00,
2013-02-07 10:55:00,50.1,37.6,30.09,East,93,4.5,4.5,62,0.00,,,0.00,VWS V14.01,2013-02-07 15:55:00,
2013-02-07 11:00:00,50.9,37.5,30.08,East,89,9.0,9.0,60,0.00,,,0.00,VWS V14.01,2013-02-07 16:00:00,
2013-02-07 11:05:00,51.6,37.2,30.08,SE,143,12.0,12.0,58,0.00,,,0.00,VWS V14.01,2013-02-07 16:05:00,
2013-02-07 11:10:00,52.2,35.9,30.08,ENE,73,6.0,6.0,54,0.00,,,0.00,VWS V14.01,2013-02-07 16:10:00,
2013-02-07 11:15:00,52.8,35.9,30.08,East,92,1.5,6.0,52,0.00,,,0.00,VWS V14.01,2013-02-07 16:15:00,
2013-02-07 11:20:00,53.1,34.6,30.08,SSW,202,6.0,12.0,49,0.00,,,0.00,VWS V14.01,2013-02-07 16:20:00,
2013-02-07 11:25:00,53.3,35.9,30.08,East,94,4.5,6.0,51,0.00,,,0.00,VWS V14.01,2013-02-07 16:25:00,
2013-02-07 11:30:00,54.1,35.6,30.07,SSW,192,7.5,9.0,49,0.00,,,0.00,VWS V14.01,2013-02-07 16:30:00,
2013-02-07 11:35:00,54.5,35.4,30.07,SSE,161,4.5,9.0,48,0.00,,,0.00,VWS V14.01,2013-02-07 16:35:00,
2013-02-07 11:40:00,55.4,35.1,30.07,SW,223,4.5,7.5,46,0.00,,,0.00,VWS V14.01,2013-02-07 16:40:00,
2013-02-07 11:45:00,55.2,34.9,30.07,SSW,213,7.5,9.0,46,0.00,,,0.00,VWS V14.01,2013-02-07 16:45:00,
2013-02-07 11:50:00,55.3,35.6,30.07,South,184,3.0,6.0,47,0.00,,,0.00,VWS V14.01,2013-02-07 16:50:00,
2013-02-07 11:55:00,55.7,35.9,30.07,SW,220,9.0,9.0,47,0.00,,,0.00,VWS V14.01,2013-02-07 16:55:00,
2013-02-07 12:00:00,55.9,36.7,30.06,ESE,119,7.5,7.5,48,0.00,,,0.00,VWS V14.01,2013-02-07 17:00:00,
2013-02-07 12:05:00,56.3,35.9,30.07,SSW,209,9.0,9.0,46,0.00,,,0.00,VWS V14.01,2013-02-07 17:05:00,
2013-02-07 12:10:00,56.5,36.7,30.06,WSW,247,6.0,9.0,47,0.00,,,0.00,VWS V14.01,2013-02-07 17:10:00,
2013-02-07 12:15:00,56.8,36.9,30.06,SW,233,6.0,10.5,47,0.00,,,0.00,VWS V14.01,2013-02-07 17:15:00,
2013-02-07 12:20:00,57.0,36.0,30.05,SW,233,9.0,13.5,45,0.00,,,0.00,VWS V14.01,2013-02-07 17:20:00,
2013-02-07 12:25:00,57.1,35.5,30.05,SSW,198,7.5,9.0,44,0.00,,,0.00,VWS V14.01,2013-02-07 17:25:00,
2013-02-07 12:30:00,57.2,36.7,30.04,South,188,4.5,4.5,46,0.00,,,0.00,VWS V14.01,2013-02-07 17:30:00,
2013-02-07 12:35:00,57.6,35.9,30.04,WSW,252,9.0,10.5,44,0.00,,,0.00,VWS V14.01,2013-02-07 17:35:00,
2013-02-07 12:40:00,57.7,37.2,30.03,SW,224,4.5,7.5,46,0.00,,,0.00,VWS V14.01,2013-02-07 17:40:00,
2013-02-07 12:44:00,58.2,36.5,30.03,South,171,3.0,10.5,44,0.00,,,0.00,VWS V14.01,2013-02-07 17:44:00,
2013-02-07 12:49:00,58.2,36.5,30.02,WSW,244,10.5,12.0,44,0.00,,,0.00,VWS V14.01,2013-02-07 17:49:00,
2013-02-07 12:54:00,58.3,36.6,30.02,WSW,257,4.5,9.0,44,0.00,,,0.00,VWS V14.01,2013-02-07 17:54:00,
2013-02-07 12:59:00,58.3,36.6,30.01,West,269,9.0,9.0,44,0.00,,,0.00,VWS V14.01,2013-02-07 17:59:00,
2013-02-07 13:04:00,58.3,36.6,30.01,WSW,245,7.5,7.5,44,0.00,,,0.00,VWS V14.01,2013-02-07 18:04:00,
2013-02-07 13:09:00,58.6,37.4,30.00,SSW,206,9.0,9.0,45,0.00,,,0.00,VWS V14.01,2013-02-07 18:09:00,
2013-02-07 13:14:00,58.8,37.6,30.00,SSW,203,7.5,9.0,45,0.00,,,0.00,VWS V14.01,2013-02-07 18:14:00,
2013-02-07 13:19:00,59.0,37.8,30.00,SSW,195,12.0,12.0,45,0.00,,,0.00,VWS V14.01,2013-02-07 18:19:00,
2013-02-07 13:24:00,59.4,37.0,30.00,SSW,207,6.0,12.0,43,0.00,,,0.00,VWS V14.01,2013-02-07 18:24:00,
2013-02-07 13:29:00,59.4,37.6,30.00,SSW,212,12.0,13.5,44,0.00,,,0.00,VWS V14.01,2013-02-07 18:29:00,
2013-02-07 13:34:00,59.6,37.1,29.99,WSW,238,9.0,16.5,43,0.00,,,0.00,VWS V14.01,2013-02-07 18:34:00,
2013-02-07 13:39:00,59.8,37.9,29.99,SSW,206,6.0,7.5,44,0.00,,,0.00,VWS V14.01,2013-02-07 18:39:00,
2013-02-07 13:44:00,60.8,38.8,29.99,SSW,209,1.5,4.5,44,0.00,,,0.00,VWS V14.01,2013-02-07 18:44:00,
2013-02-07 13:49:00,61.0,38.4,29.98,WSW,250,6.0,10.5,43,0.00,,,0.00,VWS V14.01,2013-02-07 18:49:00,
2013-02-07 13:54:00,60.8,37.6,29.98,West,261,6.0,7.5,42,0.00,,,0.00,VWS V14.01,2013-02-07 18:54:00,
2013-02-07 13:59:00,61.1,37.9,29.98,SW,228,10.5,12.0,42,0.00,,,0.00,VWS V14.01,2013-02-07 18:59:00,
2013-02-07 14:04:00,61.4,38.8,29.97,SW,229,9.0,9.0,43,0.00,,,0.00,VWS V14.01,2013-02-07 19:04:00,
2013-02-07 14:09:00,61.8,38.5,29.97,SSW,192,10.5,12.0,42,0.00,,,0.00,VWS V14.01,2013-02-07 19:09:00,
2013-02-07 14:14:00,61.9,37.9,29.96,SW,214,9.0,13.5,41,0.00,,,0.00,VWS V14.01,2013-02-07 19:14:00,
2013-02-07 14:19:00,62.0,38.7,29.96,West,261,4.5,7.5,42,0.00,,,0.00,VWS V14.01,2013-02-07 19:19:00,
2013-02-07 14:24:00,61.9,37.9,29.96,WSW,245,10.5,12.0,41,0.00,,,0.00,VWS V14.01,2013-02-07 19:24:00,
2013-02-07 14:29:00,62.1,38.8,29.96,SSW,205,9.0,10.5,42,0.00,,,0.00,VWS V14.01,2013-02-07 19:29:00,
2013-02-07 14:34:00,62.4,39.0,29.95,SSW,195,4.5,9.0,42,0.00,,,0.00,VWS V14.01,2013-02-07 19:34:00,
2013-02-07 14:39:00,62.6,38.6,29.95,SW,228,6.0,7.5,41,0.00,,,0.00,VWS V14.01,2013-02-07 19:39:00,
2013-02-07 14:44:00,63.0,38.9,29.95,WSW,245,10.5,12.0,41,0.00,,,0.00,VWS V14.01,2013-02-07 19:44:00,
2013-02-07 14:49:00,63.4,38.6,29.95,SW,224,10.5,12.0,40,0.00,,,0.00,VWS V14.01,2013-02-07 19:49:00,
2013-02-07 14:54:00,63.4,38.6,29.95,West,271,10.5,10.5,40,0.00,,,0.00,VWS V14.01,2013-02-07 19:54:00,
2013-02-07 14:59:00,63.5,39.4,29.95,South,176,6.0,7.5,41,0.00,,,0.00,VWS V14.01,2013-02-07 19:59:00,
2013-02-07 15:04:00,63.8,39.0,29.95,SW,234,9.0,9.0,40,0.00,,,0.00,VWS V14.01,2013-02-07 20:04:00,
2013-02-07 15:09:00,64.1,37.9,29.94,SSW,203,7.5,7.5,38,0.00,,,0.00,VWS V14.01,2013-02-07 20:09:00,
2013-02-07 15:14:00,64.3,38.7,29.94,South,169,7.5,12.0,39,0.00,,,0.00,VWS V14.01,2013-02-07 20:14:00,
2013-02-07 15:19:00,64.9,38.6,29.94,SSW,205,10.5,15.0,38,0.00,,,0.00,VWS V14.01,2013-02-07 20:19:00,
2013-02-07 15:24:00,64.8,37.8,29.94,SW,223,6.0,10.5,37,0.00,,,0.00,VWS V14.01,2013-02-07 20:24:00,
2013-02-07 15:29:00,64.6,38.3,29.94,WSW,241,9.0,10.5,38,0.00,,,0.00,VWS V14.01,2013-02-07 20:29:00,
2013-02-07 15:34:00,64.5,37.5,29.94,SW,231,7.5,10.5,37,0.00,,,0.00,VWS V14.01,2013-02-07 20:34:00,
2013-02-07 15:39:00,64.8,38.5,29.93,WSW,244,6.0,6.0,38,0.00,,,0.00,VWS V14.01,2013-02-07 20:39:00,
2013-02-07 15:44:00,65.0,38.7,29.93,South,188,13.5,15.0,38,0.00,,,0.00,VWS V14.01,2013-02-07 20:44:00,
2013-02-07 15:49:00,64.8,38.5,29.93,SW,223,7.5,9.0,38,0.00,,,0.00,VWS V14.01,2013-02-07 20:49:00,
2013-02-07 15:54:00,64.8,38.5,29.92,SW,222,7.5,10.5,38,0.00,,,0.00,VWS V14.01,2013-02-07 20:54:00,
2013-02-07 15:59:00,64.8,39.2,29.93,WSW,239,4.5,9.0,39,0.00,,,0.00,VWS V14.01,2013-02-07 20:59:00,
2013-02-07 16:04:00,65.0,39.4,29.92,SW,220,10.5,13.5,39,0.00,,,0.00,VWS V14.01,2013-02-07 21:04:00,
2013-02-07 16:09:00,65.1,39.5,29.92,SW,220,9.0,9.0,39,0.00,,,0.00,VWS V14.01,2013-02-07 21:09:00,
2013-02-07 16:14:00,65.5,40.5,29.92,WSW,238,7.5,7.5,40,0.00,,,0.00,VWS V14.01,2013-02-07 21:14:00,
2013-02-07 16:19:00,65.5,40.5,29.92,SW,217,3.0,3.0,40,0.00,,,0.00,VWS V14.01,2013-02-07 21:19:00,
2013-02-07 16:24:00,65.4,40.4,29.92,WSW,254,10.5,10.5,40,0.00,,,0.00,VWS V14.01,2013-02-07 21:24:00,
2013-02-07 16:29:00,65.0,40.0,29.92,SW,236,15.0,15.0,40,0.00,,,0.00,VWS V14.01,2013-02-07 21:29:00,
2013-02-07 16:34:00,64.8,40.5,29.92,WSW,238,12.0,12.0,41,0.00,,,0.00,VWS V14.01,2013-02-07 21:34:00,
2013-02-07 16:39:00,64.6,40.4,29.92,WSW,238,13.5,13.5,41,0.00,,,0.00,VWS V14.01,2013-02-07 21:39:00,
2013-02-07 16:44:00,64.8,40.5,29.92,SSW,213,4.5,7.5,41,0.00,,,0.00,VWS V14.01,2013-02-07 21:44:00,
2013-02-07 16:49:00,64.9,41.3,29.92,SW,234,4.5,4.5,42,0.00,,,0.00,VWS V14.01,2013-02-07 21:49:00,
2013-02-07 16:54:00,64.8,41.2,29.91,SW,228,4.5,7.5,42,0.00,,,0.00,VWS V14.01,2013-02-07 21:54:00,
2013-02-07 16:59:00,64.5,40.9,29.91,WSW,243,6.0,12.0,42,0.00,,,0.00,VWS V14.01,2013-02-07 21:59:00,
2013-02-07 17:04:00,64.6,41.7,29.91,SW,234,3.0,3.0,43,0.00,,,0.00,VWS V14.01,2013-02-07 22:04:00,
2013-02-07 17:09:00,64.6,41.0,29.92,WSW,244,7.5,7.5,42,0.00,,,0.00,VWS V14.01,2013-02-07 22:09:00,
2013-02-07 17:14:00,64.3,41.4,29.91,SW,229,6.0,6.0,43,0.00,,,0.00,VWS V14.01,2013-02-07 22:14:00,
2013-02-07 17:19:00,64.1,41.8,29.91,WSW,257,6.0,9.0,44,0.00,,,0.00,VWS V14.01,2013-02-07 22:19:00,
2013-02-07 17:24:00,64.0,41.7,29.91,SW,216,9.0,12.0,44,0.00,,,0.00,VWS V14.01,2013-02-07 22:24:00,
2013-02-07 17:29:00,63.9,41.0,29.91,WSW,240,10.5,10.5,43,0.00,,,0.00,VWS V14.01,2013-02-07 22:29:00,
2013-02-07 17:34:00,63.8,40.9,29.91,SW,234,4.5,4.5,43,0.00,,,0.00,VWS V14.01,2013-02-07 22:34:00,
2013-02-07 17:39:00,63.6,41.4,29.91,WSW,241,3.0,3.0,44,0.00,,,0.00,VWS V14.01,2013-02-07 22:39:00,
2013-02-07 17:44:00,63.3,41.1,29.90,WSW,245,6.0,6.0,44,0.00,,,0.00,VWS V14.01,2013-02-07 22:44:00,
2013-02-07 17:49:00,62.7,40.5,29.90,SW,222,1.5,1.5,44,0.00,,,0.00,VWS V14.01,2013-02-07 22:49:00,
2013-02-07 17:54:00,62.1,40.0,29.90,SW,224,1.5,1.5,44,0.00,,,0.00,VWS V14.01,2013-02-07 22:54:00,
2013-02-07 17:59:00,61.4,40.0,29.90,SSW,212,1.5,3.0,45,0.00,,,0.00,VWS V14.01,2013-02-07 22:59:00,
2013-02-07 18:04:00,60.8,40.0,29.90,SW,214,4.5,4.5,46,0.00,,,0.00,VWS V14.01,2013-02-07 23:04:00,
2013-02-07 18:09:00,60.2,40.0,29.90,SSW,205,3.0,3.0,47,0.00,,,0.00,VWS V14.01,2013-02-07 23:09:00,
2013-02-07 18:14:00,59.7,40.2,29.90,SSW,193,1.5,1.5,48,0.00,,,0.00,VWS V14.01,2013-02-07 23:14:00,
2013-02-07 18:19:00,59.1,40.2,29.90,South,179,3.0,3.0,49,0.00,,,0.00,VWS V14.01,2013-02-07 23:19:00,
2013-02-07 18:24:00,58.7,39.8,29.90,South,181,1.5,1.5,49,0.00,,,0.00,VWS V14.01,2013-02-07 23:24:00,
2013-02-07 18:29:00,58.3,40.0,29.90,SSW,199,1.5,1.5,50,0.00,,,0.00,VWS V14.01,2013-02-07 23:29:00,
2013-02-07 18:34:00,57.8,40.0,29.90,SSW,199,1.5,1.5,51,0.00,,,0.00,VWS V14.01,2013-02-07 23:34:00,
2013-02-07 18:39:00,57.5,39.8,29.90,South,183,3.0,3.0,51,0.00,,,0.00,VWS V14.01,2013-02-07 23:39:00,
2013-02-07 18:44:00,57.1,39.9,29.90,ESE,120,1.5,1.5,52,0.00,,,0.00,VWS V14.01,2013-02-07 23:44:00,
2013-02-07 18:49:00,56.9,39.7,29.91,South,186,3.0,3.0,52,0.00,,,0.00,VWS V14.01,2013-02-07 23:49:00,
2013-02-07 18:54:00,56.9,39.7,29.91,SSE,160,3.0,6.0,52,0.00,,,0.00,VWS V14.01,2013-02-07 23:54:00,
2013-02-07 18:59:00,56.8,39.6,29.91,SSE,151,3.0,3.0,52,0.00,,,0.00,VWS V14.01,2013-02-07 23:59:00,
2013-02-07 19:04:00,56.6,39.4,29.91,SSW,212,7.5,7.5,52,0.00,,,0.00,VWS V14.01,2013-02-08 00:04:00,
2013-02-07 19:09:00,56.4,39.3,29.91,SSE,164,4.5,4.5,52,0.00,,,0.00,VWS V14.01,2013-02-08 00:09:00,
2013-02-07 19:14:00,56.0,38.9,29.91,SW,227,3.0,3.0,52,0.00,,,0.00,VWS V14.01,2013-02-08 00:14:00,
2013-02-07 19:19:00,55.8,39.2,29.91,SSW,206,3.0,4.5,54,0.00,,,0.00,VWS V14.01,2013-02-08 00:19:00,
2013-02-07 19:24:00,55.5,38.9,29.91,SSW,200,1.5,4.5,54,0.00,,,0.00,VWS V14.01,2013-02-08 00:24:00,
2013-02-07 19:29:00,55.2,38.7,29.91,SW,219,7.5,10.5,54,0.00,,,0.00,VWS V14.01,2013-02-08 00:29:00,
2013-02-07 19:34:00,55.1,38.6,29.91,SSE,150,6.0,6.0,54,0.00,,,0.00,VWS V14.01,2013-02-08 00:34:00,
2013-02-07 19:39:00,54.8,38.3,29.91,South,179,1.5,7.5,54,0.00,,,0.00,VWS V14.01,2013-02-08 00:39:00,
2013-02-07 19:44:00,54.6,38.6,29.91,SSW,195,4.5,10.5,55,0.00,,,0.00,VWS V14.01,2013-02-08 00:44:00,
2013-02-07 19:49:00,54.4,38.4,29.91,SW,224,6.0,6.0,55,0.00,,,0.00,VWS V14.01,2013-02-08 00:49:00,
2013-02-07 19:54:00,54.2,38.2,29.91,South,188,3.0,6.0,55,0.00,,,0.00,VWS V14.01,2013-02-08 00:54:00,
2013-02-07 19:59:00,54.0,38.0,29.90,South,174,4.5,4.5,55,0.00,,,0.00,VWS V14.01,2013-02-08 00:59:00,
2013-02-07 20:04:00,53.9,37.9,29.90,South,172,3.0,4.5,55,0.00,,,0.00,VWS V14.01,2013-02-08 01:04:00,
2013-02-07 20:09:00,53.6,37.7,29.90,South,185,4.5,7.5,55,0.00,,,0.00,VWS V14.01,2013-02-08 01:09:00,
2013-02-07 20:14:00,53.3,37.9,29.90,SSW,197,6.0,6.0,56,0.00,,,0.00,VWS V14.01,2013-02-08 01:14:00,
2013-02-07 20:19:00,53.0,37.6,29.90,SE,143,3.0,6.0,56,0.00,,,0.00,VWS V14.01,2013-02-08 01:19:00,
2013-02-07 20:24:00,52.7,37.8,29.90,SSW,207,4.5,6.0,57,0.00,,,0.00,VWS V14.01,2013-02-08 01:24:00,
2013-02-07 20:29:00,52.6,37.7,29.90,SSE,147,4.5,6.0,57,0.00,,,0.00,VWS V14.01,2013-02-08 01:29:00,
2013-02-07 20:34:00,52.5,37.6,29.90,South,182,3.0,4.5,57,0.00,,,0.00,VWS V14.01,2013-02-08 01:34:00,
2013-02-07 20:39:00,52.3,37.4,29.90,SW,226,3.0,6.0,57,0.00,,,0.00,VWS V14.01,2013-02-08 01:39:00,
2013-02-07 20:44:00,52.2,37.3,29.89,South,176,1.5,7.5,57,0.00,,,0.00,VWS V14.01,2013-02-08 01:44:00,
2013-02-07 20:49:00,52.1,37.2,29.89,SSE,151,3.0,6.0,57,0.00,,,0.00,VWS V14.01,2013-02-08 01:49:00,
2013-02-07 20:54:00,52.1,37.2,29.89,ESE,116,6.0,12.0,57,0.00,,,0.00,VWS V14.01,2013-02-08 01:54:00,
2013-02-07 20:59:00,52.0,37.1,29.89,South,189,4.5,9.0,57,0.00,,,0.00,VWS V14.01,2013-02-08 01:59:00,
2013-02-07 21:04:00,52.0,37.1,29.89,SSW,192,3.0,7.5,57,0.00,,,0.00,VWS V14.01,2013-02-08 02:04:00,
2013-02-07 21:09:00,51.9,36.5,29.89,SSE,153,1.5,10.5,56,0.00,,,0.00,VWS V14.01,2013-02-08 02:09:00,
2013-02-07 21:13:00,52.0,36.7,29.89,SW,220,4.5,4.5,56,0.00,,,0.00,VWS V14.01,2013-02-08 02:13:00,
2013-02-07 21:18:00,51.9,36.5,29.89,SSW,198,1.5,4.5,56,0.00,,,0.00,VWS V14.01,2013-02-08 02:18:00,
2013-02-07 21:23:00,51.7,36.4,29.89,SW,217,1.5,3.0,56,0.00,,,0.00,VWS V14.01,2013-02-08 02:23:00,
2013-02-07 21:28:00,51.6,36.3,29.89,South,171,1.5,3.0,56,0.00,,,0.00,VWS V14.01,2013-02-08 02:28:00,
2013-02-07 21:33:00,51.5,36.2,29.89,South,179,3.0,3.0,56,0.00,,,0.00,VWS V14.01,2013-02-08 02:33:00,
2013-02-07 21:38:00,51.4,36.1,29.89,SW,226,1.5,3.0,56,0.00,,,0.00,VWS V14.01,2013-02-08 02:38:00,
2013-02-07 21:43:00,51.2,35.9,29.89,SW,231,4.5,6.0,56,0.00,,,0.00,VWS V14.01,2013-02-08 02:43:00,
2013-02-07 21:48:00,51.1,35.8,29.90,South,188,1.5,4.5,56,0.00,,,0.00,VWS V14.01,2013-02-08 02:48:00,
2013-02-07 21:53:00,51.1,35.8,29.89,SSW,207,1.5,4.5,56,0.00,,,0.00,VWS V14.01,2013-02-08 02:53:00,
2013-02-07 21:58:00,51.0,35.7,29.89,SW,216,1.5,4.5,56,0.00,,,0.00,VWS V14.01,2013-02-08 02:58:00,
2013-02-07 22:03:00,50.7,35.9,29.89,South,189,1.5,3.0,57,0.00,,,0.00,VWS V14.01,2013-02-08 03:03:00,
2013-02-07 22:08:00,50.5,35.7,29.89,SE,136,3.0,3.0,57,0.00,,,0.00,VWS V14.01,2013-02-08 03:08:00,
2013-02-07 22:13:00,50.5,35.7,29.89,SW,219,1.5,1.5,57,0.00,,,0.00,VWS V14.01,2013-02-08 03:13:00,
2013-02-07 22:18:00,50.4,35.6,29.89,SSE,155,1.5,3.0,57,0.00,,,0.00,VWS V14.01,2013-02-08 03:18:00,
2013-02-07 22:23:00,50.1,35.8,29.88,South,186,1.5,3.0,58,0.00,,,0.00,VWS V14.01,2013-02-08 03:23:00,
2013-02-07 22:28:00,49.8,36.0,29.88,SSW,199,4.5,4.5,59,0.00,,,0.00,VWS V14.01,2013-02-08 03:28:00,
2013-02-07 22:33:00,49.7,35.9,29.87,SW,217,1.5,1.5,59,0.00,,,0.00,VWS V14.01,2013-02-08 03:33:00,
2013-02-07 22:38:00,49.8,36.0,29.87,SSW,201,6.0,9.0,59,0.00,,,0.00,VWS V14.01,2013-02-08 03:38:00,
2013-02-07 22:43:00,49.9,36.1,29.87,South,191,6.0,7.5,59,0.00,,,0.00,VWS V14.01,2013-02-08 03:43:00,
2013-02-07 22:48:00,49.8,36.0,29.87,SW,220,1.5,7.5,59,0.00,,,0.00,VWS V14.01,2013-02-08 03:48:00,
2013-02-07 22:53:00,49.7,35.9,29.87,ESE,120,3.0,7.5,59,0.00,,,0.00,VWS V14.01,2013-02-08 03:53:00,
2013-02-07 22:58:00,49.8,36.0,29.87,WSW,242,3.0,7.5,59,0.00,,,0.00,VWS V14.01,2013-02-08 03:58:00,
2013-02-07 23:03:00,49.7,35.9,29.87,South,185,3.0,4.5,59,0.00,,,0.00,VWS V14.01,2013-02-08 04:03:00,
2013-02-07 23:08:00,49.6,36.2,29.87,SSW,196,3.0,4.5,60,0.00,,,0.00,VWS V14.01,2013-02-08 04:08:00,
2013-02-07 23:13:00,49.5,36.1,29.86,SSW,194,4.5,4.5,60,0.00,,,0.00,VWS V14.01,2013-02-08 04:13:00,
2013-02-07 23:18:00,49.3,36.4,29.86,WSW,246,1.5,1.5,61,0.00,,,0.00,VWS V14.01,2013-02-08 04:18:00,
2013-02-07 23:23:00,49.1,36.6,29.86,SSW,212,1.5,4.5,62,0.00,,,0.00,VWS V14.01,2013-02-08 04:23:00,
2013-02-07 23:28:00,48.9,36.5,29.86,SW,214,1.5,4.5,62,0.00,,,0.00,VWS V14.01,2013-02-08 04:28:00,
2013-02-07 23:33:00,48.6,36.6,29.86,SW,228,1.5,4.5,63,0.00,,,0.00,VWS V14.01,2013-02-08 04:33:00,
2013-02-07 23:38:00,48.6,37.0,29.86,SW,217,3.0,4.5,64,0.00,,,0.00,VWS V14.01,2013-02-08 04:38:00,
2013-02-07 23:43:00,48.6,37.4,29.86,WSW,240,3.0,6.0,65,0.00,,,0.00,VWS V14.01,2013-02-08 04:43:00,
2013-02-07 23:48:00,48.7,37.9,29.86,South,176,1.5,7.5,66,0.00,,,0.00,VWS V14.01,2013-02-08 04:48:00,
2013-02-07 23:53:00,48.8,38.4,29.86,SSW,195,7.5,7.5,67,0.00,,,0.00,VWS V14.01,2013-02-08 04:53:00,
2013-02-07 23:58:00,48.8,38.4,29.86,ESE,120,1.5,3.0,67,0.00,,,0.00,VWS V14.01,2013-02-08 04:58:00,